首页
METAR-TAF:

METAR-TAF

机场 :

Eau Claire, 威斯康辛州, 美国

纬度: 44-51-55N, 经度: 091-29-06W, 海拔: 277米

当前天气观测

该预报发布于15分钟前的22:56 UTC
静风
温度 26°C
湿度 39%
气压 1017 hPa
能見度: 16.1公里
天空无云

METAR: KEAU 142256Z 00000KT 10SM CLR 26/11 A3003 RMK AO2 SLP167 T02610111

时间: 18:11 (23:11 UTC)

预报

该预报发布于5小时和37分钟前的17:34 UTC
预报有效从14日的 18点(UTC)到 15日的 18点(UTC)
风速6节,风向西北
能見度: 10公里
少量云层高于5000英尺
从 15日的 0500点(UTC)
风速4节,风向东转东南
能見度: 10公里
散云层高于25000英尺
从 15日的 1500点(UTC)
风速13节,风向南转南东,有时为18节阵风
能見度: 10公里
阴天层高于10000英尺

TAF: KEAU 141734Z 1418/1518 32006KT P6SM FEW050 FM150500 12004KT P6SM SCT250 FM151500 16013G18KT P6SM OVC100

超过4000个机场的气象观测和天气预报(METAR&TAF报告)。

可查询的气象台以黄色和红色小点在地图上表示。

将鼠标移到小点上方,可查看气象台名称。

然后点击查看天气观测和预报。

如需切换地图:点击带黑十字的绿色按钮放大地图;点击带横线的绿色按钮缩小地图;或者点击绿色箭头查看邻近地区的地图。


METAR-TAF: